Time;durP1;ratioP1;P1;durP2;ratioP2;P2;SDS_P1;SDS_P2;PMS_P1;PMS_P2;Temp;Humidity;BMP_temperature;BMP_pressure;BME280_temperature;BME280_humidity;BME280_pressure;Samples;Min_cycle;Max_cycle;Signal;HPM_P1;HPM_P2
2021/12/30 00:03:45;;;;;;;51.03;12.48;;;;;;;9.33;96.18;100964.28;10471498;28;20064;-90
2021/12/30 00:08:49;;;;;;;61.53;14.57;;;;;;;9.27;96.45;100975.25;10467598;28;20522;-89
2021/12/30 00:13:50;;;;;;;51.53;13.07;;;;;;;9.23;95.93;100967.38;10475256;28;20051;-90
2021/12/30 00:18:53;;;;;;;58.08;13.85;;;;;;;9.13;95.99;100967.06;10476906;28;20041;-89
2021/12/30 00:23:55;;;;;;;53.85;14.20;;;;;;;9.15;96.63;100975.72;10492669;28;20064;-88
2021/12/30 00:28:58;;;;;;;47.22;14.05;;;;;;;9.05;97.04;100984.81;10457059;28;20155;-89
2021/12/30 00:33:59;;;;;;;55.55;15.00;;;;;;;9.01;96.94;100989.81;10480513;28;20461;-87
2021/12/30 00:39:01;;;;;;;56.80;15.38;;;;;;;9.04;97.21;100997.63;10481523;28;20099;-88
2021/12/30 00:44:06;;;;;;;62.17;15.57;;;;;;;8.89;97.42;101009.13;10471197;28;20504;-90
2021/12/30 00:49:09;;;;;;;55.40;15.52;;;;;;;8.92;97.49;100994.63;10467904;28;20045;-89
2021/12/30 00:54:15;;;;;;;61.15;15.05;;;;;;;8.99;97.51;101015.47;10455423;28;20051;-89
2021/12/30 00:59:17;;;;;;;70.72;16.55;;;;;;;9.14;97.88;101015.09;10487845;28;20059;-89
2021/12/30 01:04:20;;;;;;;66.07;16.27;;;;;;;9.28;97.53;101007.84;10495940;28;20132;-88
2021/12/30 01:09:22;;;;;;;60.08;16.83;;;;;;;9.40;97.06;101012.50;10488095;28;20043;-88
2021/12/30 01:14:29;;;;;;;59.03;17.13;;;;;;;9.56;97.06;101013.88;10477465;28;20028;-89
2021/12/30 01:19:43;;;;;;;62.33;15.68;;;;;;;9.68;96.46;101026.25;10457442;28;20056;-86
2021/12/30 01:24:45;;;;;;;51.80;14.93;;;;;;;9.76;96.34;101032.50;10485185;28;20559;-89
2021/12/30 01:29:48;;;;;;;44.65;14.18;;;;;;;9.81;95.83;101035.22;10462824;28;20056;-88
2021/12/30 01:34:52;;;;;;;58.92;14.90;;;;;;;9.94;95.75;101041.63;10475884;28;20041;-87
2021/12/30 01:39:54;;;;;;;55.40;14.65;;;;;;;10.00;95.67;101050.41;10453203;28;20077;-89
2021/12/30 01:44:56;;;;;;;50.90;13.23;;;;;;;10.05;95.34;101053.13;10450723;28;20037;-87
2021/12/30 01:49:57;;;;;;;44.05;12.43;;;;;;;10.06;95.06;101062.59;10485598;28;20060;-88
2021/12/30 01:55:00;;;;;;;45.95;12.32;;;;;;;10.07;95.22;101059.19;10473624;28;20044;-88
2021/12/30 02:00:06;;;;;;;45.10;12.52;;;;;;;10.14;94.94;101066.28;10477130;28;20132;-88
2021/12/30 02:05:14;;;;;;;46.00;11.73;;;;;;;10.18;95.03;101072.41;10500050;28;20040;-88
2021/12/30 02:10:18;;;;;;;51.45;13.70;;;;;;;10.27;95.08;101061.50;10474251;28;20101;-89
2021/12/30 02:15:20;;;;;;;45.45;12.43;;;;;;;10.32;94.64;101065.06;10471225;28;20040;-89
2021/12/30 02:20:52;;;;;;;39.80;11.18;;;;;;;10.32;95.20;101090.81;10448425;28;20044;-88
2021/12/30 02:26:01;;;;;;;39.70;12.52;;;;;;;10.30;95.40;101093.34;10472441;28;20076;-87
2021/12/30 02:31:07;;;;;;;43.03;13.25;;;;;;;10.37;95.33;101086.72;10495588;28;20526;-88
2021/12/30 02:36:10;;;;;;;44.03;12.63;;;;;;;10.30;95.42;101088.19;10457251;28;20048;-88
2021/12/30 02:41:16;;;;;;;65.55;15.43;;;;;;;10.46;95.51;101088.69;10465825;28;20049;-87
2021/12/30 02:46:24;;;;;;;44.65;14.15;;;;;;;10.38;95.71;101096.22;10451435;28;20195;-87
2021/12/30 02:51:27;;;;;;;53.67;14.30;;;;;;;10.32;96.77;101089.13;10457938;28;20055;-88
2021/12/30 02:56:29;;;;;;;64.93;14.80;;;;;;;10.26;97.52;101108.66;10466839;28;20551;-87
2021/12/30 03:01:33;;;;;;;53.53;13.77;;;;;;;10.23;98.02;101112.03;10478632;28;20415;-87
2021/12/30 03:06:35;;;;;;;51.13;14.40;;;;;;;10.16;98.45;101104.94;10460421;28;20037;-86
2021/12/30 03:11:36;;;;;;;65.53;17.98;;;;;;;10.18;99.06;101105.88;10477556;28;20079;-87
2021/12/30 03:16:41;;;;;;;57.05;16.90;;;;;;;10.19;99.36;101114.44;10469151;28;20063;-88
2021/12/30 03:21:43;;;;;;;63.67;17.65;;;;;;;10.14;99.44;101117.78;10485501;28;20107;-88
2021/12/30 03:26:45;;;;;;;76.20;20.10;;;;;;;10.19;100.00;101125.66;10472070;28;20059;-88
2021/12/30 03:31:47;;;;;;;66.50;18.17;;;;;;;10.15;99.99;101118.63;10458359;28;20049;-86
2021/12/30 03:36:49;;;;;;;65.05;19.33;;;;;;;10.16;100.00;101110.94;10468192;28;20052;-82
2021/12/30 03:41:51;;;;;;;64.72;20.17;;;;;;;10.19;100.00;101109.31;10506183;28;20041;-83
2021/12/30 03:46:53;;;;;;;62.67;19.35;;;;;;;10.23;100.00;101116.31;10506449;28;20064;-83
2021/12/30 03:51:55;;;;;;;58.83;18.13;;;;;;;10.24;100.00;101118.94;10473281;28;20087;-83
2021/12/30 03:56:57;;;;;;;64.50;20.75;;;;;;;10.30;100.00;101128.53;10492637;28;20040;-83
2021/12/30 04:01:59;;;;;;;62.67;20.38;;;;;;;10.33;100.00;101123.47;10510166;28;20044;-83
2021/12/30 04:07:01;;;;;;;72.47;18.75;;;;;;;10.37;100.00;101130.50;10470096;28;20045;-83
2021/12/30 04:12:04;;;;;;;75.55;21.40;;;;;;;10.38;100.00;101124.53;10456504;28;20045;-83
2021/12/30 04:17:06;;;;;;;74.47;17.63;;;;;;;10.40;100.00;101125.44;10473444;28;20041;-83
2021/12/30 04:22:14;;;;;;;75.32;21.65;;;;;;;10.43;100.00;101110.09;10459048;28;20124;-83
2021/12/30 04:27:16;;;;;;;80.80;22.20;;;;;;;10.53;100.00;101116.38;10451262;28;20128;-84
2021/12/30 04:32:17;;;;;;;98.88;24.05;;;;;;;10.61;100.00;101114.91;10440008;28;20087;-85
2021/12/30 04:37:19;;;;;;;81.15;19.88;;;;;;;10.67;100.00;101114.22;10493395;28;20044;-84
2021/12/30 04:42:23;;;;;;;87.13;22.27;;;;;;;10.67;100.00;101123.63;10536934;28;20492;-85
2021/12/30 04:47:25;;;;;;;99.47;21.42;;;;;;;10.71;100.00;101126.34;10455103;28;20050;-85
2021/12/30 04:52:28;;;;;;;92.65;21.65;;;;;;;10.77;100.00;101121.38;10475933;28;20049;-85
2021/12/30 04:57:30;;;;;;;80.65;18.25;;;;;;;10.83;100.00;101136.13;10452814;28;20570;-85
2021/12/30 05:02:45;;;;;;;85.00;23.08;;;;;;;10.91;100.00;101137.22;10462390;28;20045;-85
2021/12/30 05:07:49;;;;;;;65.70;18.65;;;;;;;10.98;100.00;101139.97;10500553;28;20411;-85
2021/12/30 05:12:51;;;;;;;64.82;17.40;;;;;;;11.05;100.00;101132.47;10504061;28;20048;-85
2021/12/30 05:17:53;;;;;;;53.88;12.70;;;;;;;11.11;100.00;101130.06;10500959;28;20048;-84
2021/12/30 05:22:58;;;;;;;56.83;15.27;;;;;;;11.07;100.00;101125.63;10501792;28;20048;-85
2021/12/30 05:28:00;;;;;;;56.03;16.08;;;;;;;11.10;100.00;101115.41;10447755;28;20064;-85
2021/12/30 05:33:02;;;;;;;45.97;12.60;;;;;;;11.12;100.00;101120.59;10461680;28;20066;-86
2021/12/30 05:38:04;;;;;;;42.13;13.75;;;;;;;11.13;100.00;101121.50;10492646;28;20389;-85
2021/12/30 05:43:06;;;;;;;28.08;9.55;;;;;;;11.16;100.00;101124.13;10514838;28;20044;-84
2021/12/30 05:48:08;;;;;;;27.05;9.90;;;;;;;11.18;100.00;101140.53;10477508;28;20102;-85
2021/12/30 05:53:10;;;;;;;28.30;9.10;;;;;;;11.20;100.00;101147.47;10457916;28;20414;-84
2021/12/30 05:58:12;;;;;;;22.58;7.22;;;;;;;11.23;100.00;101162.16;10483469;28;20395;-83
2021/12/30 06:03:19;;;;;;;20.70;8.00;;;;;;;11.26;100.00;101160.53;10510882;28;20051;-84
2021/12/30 06:08:20;;;;;;;19.73;8.43;;;;;;;11.20;100.00;101162.94;10505351;28;20055;-84
2021/12/30 06:13:22;;;;;;;21.83;7.85;;;;;;;11.21;100.00;101156.97;10460236;28;20063;-85
2021/12/30 06:18:24;;;;;;;16.35;7.15;;;;;;;11.20;100.00;101152.63;10491758;28;20048;-84
2021/12/30 06:23:26;;;;;;;16.13;6.35;;;;;;;11.16;100.00;101139.59;10467623;28;20080;-85
2021/12/30 06:28:27;;;;;;;17.38;7.00;;;;;;;11.15;100.00;101127.53;10484503;28;20540;-85
2021/12/30 06:33:29;;;;;;;12.77;5.30;;;;;;;11.11;100.00;101127.47;10474940;28;20067;-86
2021/12/30 06:38:33;;;;;;;16.17;6.25;;;;;;;11.15;100.00;101131.00;10490393;28;20054;-84
2021/12/30 06:43:35;;;;;;;12.98;5.45;;;;;;;11.19;100.00;101135.41;10466559;28;20052;-85
2021/12/30 06:48:38;;;;;;;15.90;6.72;;;;;;;11.23;100.00;101141.53;10461784;28;20048;-85
2021/12/30 06:53:40;;;;;;;16.13;6.18;;;;;;;11.30;100.00;101151.16;10477519;28;20048;-85
2021/12/30 06:58:45;;;;;;;28.25;9.85;;;;;;;11.44;100.00;101156.72;10477400;28;20135;-86
2021/12/30 07:03:47;;;;;;;42.92;12.60;;;;;;;11.52;100.00;101169.78;10478742;28;20063;-85
2021/12/30 07:08:49;;;;;;;44.08;12.82;;;;;;;11.54;100.00;101176.72;10444713;28;20049;-86
2021/12/30 07:13:50;;;;;;;48.40;15.50;;;;;;;11.69;100.00;101178.00;10478908;28;20090;-84
2021/12/30 07:18:52;;;;;;;51.85;16.77;;;;;;;11.69;100.00;101194.34;10467725;28;20076;-85
2021/12/30 07:23:54;;;;;;;41.88;15.80;;;;;;;11.73;100.00;101191.00;10476894;28;20113;-85
2021/12/30 07:28:59;;;;;;;50.97;20.67;;;;;;;11.78;100.00;101185.09;10473393;28;20037;-84
2021/12/30 07:34:07;;;;;;;48.88;18.10;;;;;;;11.73;100.00;101191.00;10468076;28;20045;-86
2021/12/30 07:39:11;;;;;;;50.47;20.02;;;;;;;11.71;100.00;101197.84;10481010;28;20052;-86
2021/12/30 07:44:22;;;;;;;56.00;18.42;;;;;;;11.69;100.00;101198.66;10465979;28;20477;-85
2021/12/30 07:49:46;;;;;;;54.90;21.60;;;;;;;11.72;100.00;101199.59;10472166;28;20036;-84
2021/12/30 07:54:47;;;;;;;47.47;15.88;;;;;;;11.73;99.82;101200.47;10454249;28;20036;-87
2021/12/30 07:59:51;;;;;;;53.25;20.70;;;;;;;11.84;99.54;101208.47;10469748;28;20048;-87
2021/12/30 08:04:53;;;;;;;53.05;17.85;;;;;;;11.85;99.44;101215.41;10461616;28;20037;-86
2021/12/30 08:09:55;;;;;;;53.20;16.63;;;;;;;11.86;99.22;101215.41;10458835;28;20048;-86
2021/12/30 08:14:57;;;;;;;53.25;16.63;;;;;;;11.95;98.74;101227.69;10466671;28;20545;-86
2021/12/30 08:19:58;;;;;;;38.30;14.27;;;;;;;11.97;98.60;101238.97;10472748;28;20504;-86
2021/12/30 08:25:02;;;;;;;36.20;13.15;;;;;;;12.02;98.47;101241.66;10455273;28;20048;-86
2021/12/30 08:30:07;;;;;;;36.85;12.30;;;;;;;12.00;98.97;101240.75;10473150;28;20049;-85
2021/12/30 08:35:11;;;;;;;32.75;11.30;;;;;;;12.09;98.62;101245.28;10457492;28;20076;-86
2021/12/30 08:40:15;;;;;;;25.40;9.50;;;;;;;12.30;97.53;101229.44;10458150;28;20135;-84
2021/12/30 08:45:18;;;;;;;20.42;8.38;;;;;;;12.28;96.92;101242.31;10486267;28;20049;-86
2021/12/30 08:50:22;;;;;;;18.25;7.50;;;;;;;12.27;96.50;101250.91;10469481;28;20052;-86
2021/12/30 08:55:26;;;;;;;12.02;6.80;;;;;;;12.42;95.97;101234.91;10460526;28;20048;-87
2021/12/30 09:00:33;;;;;;;12.32;5.80;;;;;;;12.44;95.88;101222.00;10457147;28;20049;-87
2021/12/30 09:05:35;;;;;;;8.70;5.40;;;;;;;12.58;94.50;101223.19;10463647;28;20045;-87
2021/12/30 09:10:40;;;;;;;7.63;4.43;;;;;;;12.59;94.20;101243.06;10475256;28;20082;-87
2021/12/30 09:15:43;;;;;;;8.35;4.60;;;;;;;12.57;94.58;101255.06;10465022;28;20041;-88
2021/12/30 09:20:48;;;;;;;9.20;5.38;;;;;;;12.69;93.18;101255.34;10432604;28;20052;-89
2021/12/30 09:25:50;;;;;;;8.40;5.50;;;;;;;12.77;92.65;101245.19;10458031;28;20499;-88
2021/12/30 09:30:52;;;;;;;6.95;4.43;;;;;;;12.74;92.42;101247.69;10448181;28;20076;-88
2021/12/30 09:35:54;;;;;;;5.43;3.80;;;;;;;12.77;92.06;101262.41;10460086;28;20057;-89
2021/12/30 09:40:58;;;;;;;6.88;3.63;;;;;;;12.80;92.30;101267.63;10457806;28;20040;-89
2021/12/30 09:46:00;;;;;;;6.63;3.50;;;;;;;12.83;92.08;101272.88;10457367;28;20055;-86
2021/12/30 09:51:04;;;;;;;5.40;3.10;;;;;;;12.87;90.91;101279.88;10474060;28;20080;-89
2021/12/30 09:56:06;;;;;;;6.72;3.03;;;;;;;12.86;91.47;101291.03;10461619;28;20131;-86
2021/12/30 10:01:07;;;;;;;5.43;3.40;;;;;;;12.98;90.78;101306.84;10471920;28;20095;-89
2021/12/30 10:06:14;;;;;;;5.85;3.38;;;;;;;13.05;90.56;101294.06;10458870;28;20041;-90
2021/12/30 10:11:15;;;;;;;5.78;3.47;;;;;;;13.14;89.57;101291.69;10447750;28;20074;-91
2021/12/30 10:16:18;;;;;;;3.80;2.42;;;;;;;13.12;89.67;101285.59;10450088;28;20127;-88
2021/12/30 10:21:24;;;;;;;8.98;3.10;;;;;;;13.23;89.32;101289.25;10436350;28;20381;-90
2021/12/30 10:26:27;;;;;;;8.40;3.15;;;;;;;13.25;88.91;101282.41;10443680;28;20046;-91
2021/12/30 10:31:31;;;;;;;8.63;3.38;;;;;;;13.31;88.72;101292.88;10447679;28;20115;-88
2021/12/30 10:36:36;;;;;;;12.05;4.82;;;;;;;13.36;88.46;101295.56;10457079;28;20119;-88
2021/12/30 10:41:38;;;;;;;11.13;5.20;;;;;;;13.38;88.11;101300.78;10463873;28;20076;-89
2021/12/30 10:46:40;;;;;;;11.88;6.45;;;;;;;13.32;88.40;101317.91;10477181;28;20484;-88
2021/12/30 10:51:47;;;;;;;13.48;6.88;;;;;;;13.28;88.62;101318.72;10455724;28;20053;-88
2021/12/30 10:56:55;;;;;;;11.15;6.70;;;;;;;13.24;87.91;101316.88;10450827;28;20071;-87
2021/12/30 11:02:02;;;;;;;13.90;6.88;;;;;;;13.25;87.44;101328.97;10467975;28;20052;-87
2021/12/30 11:07:09;;;;;;;10.52;6.53;;;;;;;13.25;87.32;101317.78;10472461;28;20044;-89
2021/12/30 11:12:11;;;;;;;13.23;5.70;;;;;;;13.21;87.45;101309.06;10448126;28;20454;-89
2021/12/30 11:17:17;;;;;;;8.85;5.28;;;;;;;13.24;87.13;101324.66;10471665;28;20493;-87
2021/12/30 11:22:25;;;;;;;15.50;5.53;;;;;;;13.27;87.30;101319.53;10457178;28;20049;-87
2021/12/30 11:27:28;;;;;;;15.73;4.82;;;;;;;13.20;87.18;101319.38;10465906;28;20113;-87
2021/12/30 11:32:34;;;;;;;13.95;4.68;;;;;;;13.30;86.13;101322.19;10462028;28;20587;-86
2021/12/30 11:37:36;;;;;;;13.38;4.60;;;;;;;13.27;86.59;101322.13;10467727;28;20434;-88
2021/12/30 11:42:52;;;;;;;11.38;4.22;;;;;;;13.29;86.29;101325.59;10458929;28;20086;-85
2021/12/30 11:47:57;;;;;;;13.60;4.13;;;;;;;13.24;86.33;101326.38;10458572;28;20141;-89
2021/12/30 11:53:03;;;;;;;13.80;3.88;;;;;;;13.16;86.43;101332.25;10491112;28;20136;-87
2021/12/30 11:58:42;;;;;;;12.45;3.25;;;;;;;13.14;86.44;101336.50;10484848;28;20080;-87
2021/12/30 12:03:54;;;;;;;11.48;3.60;;;;;;;13.16;86.86;101341.72;10457290;28;20048;-86
2021/12/30 12:09:19;;;;;;;8.95;3.28;;;;;;;13.13;86.78;101339.06;10468083;28;20049;-87
2021/12/30 12:14:26;;;;;;;20.27;4.18;;;;;;;13.14;86.90;101346.00;10437810;28;20143;-87
2021/12/30 12:19:41;;;;;;;13.20;4.45;;;;;;;13.20;86.44;101340.97;10473957;28;20051;-88
2021/12/30 12:24:47;;;;;;;14.07;4.20;;;;;;;13.21;86.15;101332.34;10474347;28;20079;-84
2021/12/30 12:29:53;;;;;;;13.27;4.18;;;;;;;13.25;86.28;101328.13;10447025;28;20049;-85
2021/12/30 12:34:59;;;;;;;15.90;4.72;;;;;;;13.20;86.59;101340.97;10451123;28;20048;-88
2021/12/30 12:40:12;;;;;;;13.18;4.03;;;;;;;13.19;86.35;101341.78;10460828;28;20057;-87
2021/12/30 12:45:49;;;;;;;14.45;4.40;;;;;;;13.12;87.23;101337.31;10475599;28;20044;-85
2021/12/30 12:50:51;;;;;;;15.52;4.53;;;;;;;13.16;86.59;101339.13;10479455;28;20080;-87
2021/12/30 12:56:00;;;;;;;13.30;4.75;;;;;;;13.23;86.42;101334.97;10458426;28;20045;-87
2021/12/30 13:01:04;;;;;;;19.30;5.50;;;;;;;13.24;86.26;101335.00;10437687;28;20098;-88
2021/12/30 13:06:11;;;;;;;9.90;3.97;;;;;;;13.27;86.21;101335.06;10459954;28;20044;-84
2021/12/30 13:11:27;;;;;;;14.32;5.00;;;;;;;13.25;86.46;101338.47;10442376;28;20044;-84
2021/12/30 13:16:34;;;;;;;11.00;4.18;;;;;;;13.25;86.31;101347.09;10464489;28;20041;-85
2021/12/30 13:21:59;;;;;;;9.20;3.58;;;;;;;13.21;86.27;101341.81;10463793;28;20044;-84
2021/12/30 13:27:08;;;;;;;11.32;4.47;;;;;;;13.14;86.75;101357.22;10464373;28;20122;-84
2021/12/30 13:32:31;;;;;;;11.40;3.88;;;;;;;13.24;85.84;101366.03;10449232;28;20449;-85
2021/12/30 13:37:43;;;;;;;14.90;4.10;;;;;;;13.16;86.71;101367.56;10459901;28;20049;-84
2021/12/30 13:43:12;;;;;;;10.30;2.80;;;;;;;13.28;85.88;101370.47;10447555;28;20048;-84
2021/12/30 13:48:21;;;;;;;11.25;2.75;;;;;;;13.36;85.02;101356.81;10472009;28;20036;-86
2021/12/30 13:53:26;;;;;;;11.43;2.20;;;;;;;13.36;84.94;101373.22;10444584;28;20399;-85
2021/12/30 13:58:31;;;;;;;10.48;3.10;;;;;;;13.25;86.36;101365.22;10479067;28;20079;-84
2021/12/30 14:03:36;;;;;;;8.35;2.80;;;;;;;13.36;85.36;101372.34;10438974;28;20059;-87
2021/12/30 14:08:51;;;;;;;10.63;3.80;;;;;;;13.30;86.05;101384.28;10458189;28;20194;-84
2021/12/30 14:13:53;;;;;;;11.18;4.80;;;;;;;13.33;86.02;101384.38;10478295;28;20059;-86
2021/12/30 14:18:57;;;;;;;16.90;4.70;;;;;;;13.44;85.11;101381.19;10464112;28;20052;-85
2021/12/30 14:24:15;;;;;;;10.07;3.90;;;;;;;13.42;84.85;101388.03;10473145;28;20397;-84
2021/12/30 14:29:25;;;;;;;6.50;3.15;;;;;;;13.40;85.11;101400.06;10485304;28;20213;-84
2021/12/30 14:34:35;;;;;;;9.30;3.70;;;;;;;13.47;84.03;101407.13;10471359;28;20155;-85
2021/12/30 14:39:46;;;;;;;13.52;4.25;;;;;;;13.38;85.21;101404.28;10469004;28;20204;-84
2021/12/30 14:45:15;;;;;;;10.38;3.97;;;;;;;13.50;84.38;101420.16;10468129;28;20049;-84
2021/12/30 14:50:21;;;;;;;9.02;4.30;;;;;;;13.41;84.31;101415.63;10462395;28;20454;-86
2021/12/30 14:55:27;;;;;;;9.35;4.30;;;;;;;13.41;84.57;101425.09;10490295;28;20067;-85
2021/12/30 15:00:32;;;;;;;11.68;5.07;;;;;;;13.38;84.75;101427.59;10457013;28;20546;-85
2021/12/30 15:05:35;;;;;;;10.63;4.70;;;;;;;13.40;84.24;101428.53;10459415;28;20525;-85
2021/12/30 15:10:37;;;;;;;7.97;4.30;;;;;;;13.34;84.55;101431.81;10461515;28;20495;-86
2021/12/30 15:15:39;;;;;;;8.93;4.40;;;;;;;13.29;84.59;101442.06;10459845;28;20399;-84
2021/12/30 15:20:41;;;;;;;9.20;3.65;;;;;;;13.30;84.31;101430.00;10456868;28;20048;-84
2021/12/30 15:25:44;;;;;;;12.13;3.88;;;;;;;13.25;84.82;101437.66;10450829;28;20053;-84
2021/12/30 15:30:46;;;;;;;10.57;3.50;;;;;;;13.29;84.46;101443.78;10447749;28;20067;-85
2021/12/30 15:35:49;;;;;;;8.20;3.60;;;;;;;13.28;84.57;101452.38;10462842;28;20095;-85
2021/12/30 15:40:53;;;;;;;12.27;3.60;;;;;;;13.32;84.19;101457.66;10428839;28;20049;-84
2021/12/30 15:45:55;;;;;;;9.27;3.70;;;;;;;13.28;84.55;101458.44;10442337;28;20060;-84
2021/12/30 15:50:58;;;;;;;9.25;3.70;;;;;;;13.25;84.48;101458.34;10449899;28;20048;-86
2021/12/30 15:56:00;;;;;;;8.00;3.75;;;;;;;13.22;85.33;101465.19;10452809;28;20086;-85
2021/12/30 16:01:02;;;;;;;8.45;3.28;;;;;;;13.28;84.60;101470.50;10446710;28;20037;-87
2021/12/30 16:06:05;;;;;;;5.90;2.88;;;;;;;13.09;86.48;101471.75;10437828;28;20094;-86
2021/12/30 16:11:06;;;;;;;9.65;3.38;;;;;;;13.01;87.46;101472.44;10469884;28;20041;-86
2021/12/30 16:16:08;;;;;;;9.90;4.35;;;;;;;12.85;88.19;101489.28;10458579;28;20044;-85
2021/12/30 16:21:10;;;;;;;11.88;4.70;;;;;;;12.81;89.27;101495.19;10447562;28;20496;-86
2021/12/30 16:26:12;;;;;;;11.13;5.40;;;;;;;12.81;89.30;101486.59;10471175;28;20032;-85
2021/12/30 16:31:14;;;;;;;14.05;6.75;;;;;;;12.83;89.72;101490.94;10482462;28;20488;-85
2021/12/30 16:36:19;;;;;;;10.88;6.13;;;;;;;12.79;89.40;101498.59;10438566;28;20048;-86
2021/12/30 16:41:25;;;;;;;11.32;6.40;;;;;;;12.94;88.86;101499.00;10437963;28;20056;-85
2021/12/30 16:46:29;;;;;;;12.15;6.95;;;;;;;12.91;88.90;101496.34;10443634;28;20067;-86
2021/12/30 16:51:31;;;;;;;14.18;7.38;;;;;;;12.97;88.66;101500.78;10460083;28;20082;-86
2021/12/30 16:56:35;;;;;;;10.43;7.63;;;;;;;12.98;88.70;101499.94;10446970;28;20079;-86
2021/12/30 17:01:37;;;;;;;10.88;7.03;;;;;;;13.10;88.29;101509.72;10473866;28;20053;-84
2021/12/30 17:06:41;;;;;;;10.18;7.43;;;;;;;13.20;87.79;101511.72;10430093;28;20137;-86
2021/12/30 17:11:44;;;;;;;14.95;7.40;;;;;;;13.27;87.35;101505.84;10458791;28;20059;-82
2021/12/30 17:16:45;;;;;;;13.23;6.60;;;;;;;13.26;87.60;101509.28;10477357;28;20041;-83
2021/12/30 17:21:48;;;;;;;11.48;6.05;;;;;;;13.31;86.88;101520.59;10427864;28;20364;-85
2021/12/30 17:26:50;;;;;;;8.38;5.40;;;;;;;13.42;86.39;101525.22;10440995;28;20512;-86
2021/12/30 17:31:52;;;;;;;11.75;5.60;;;;;;;13.44;86.75;101531.31;10456001;28;20059;-83
2021/12/30 17:36:53;;;;;;;8.75;5.50;;;;;;;13.46;86.38;101524.44;10461472;28;20051;-88
2021/12/30 17:41:56;;;;;;;12.20;6.38;;;;;;;13.38;86.95;101536.28;10465606;28;20063;-84
2021/12/30 17:47:01;;;;;;;11.98;7.03;;;;;;;13.27;88.11;101536.91;10473254;28;20126;-84
2021/12/30 17:52:04;;;;;;;12.88;6.63;;;;;;;13.02;90.51;101548.34;10455811;28;20139;-85
2021/12/30 17:57:07;;;;;;;15.65;7.25;;;;;;;12.90;91.46;101548.00;10472445;28;20044;-84
2021/12/30 18:02:09;;;;;;;12.07;7.70;;;;;;;12.97;91.13;101540.47;10450018;28;20188;-85
2021/12/30 18:07:11;;;;;;;11.45;6.93;;;;;;;12.80;92.47;101550.38;10469026;28;20060;-85
2021/12/30 18:12:12;;;;;;;12.13;7.85;;;;;;;12.91;92.08;101544.59;10468673;28;20044;-85
2021/12/30 18:17:15;;;;;;;14.30;8.05;;;;;;;12.78;92.68;101554.59;10475255;28;20067;-85
2021/12/30 18:22:17;;;;;;;12.23;7.75;;;;;;;12.75;93.58;101564.00;10458601;28;20542;-84
2021/12/30 18:27:22;;;;;;;15.10;7.55;;;;;;;12.70;94.24;101572.47;10491937;28;20124;-85
2021/12/30 18:32:27;;;;;;;13.00;6.82;;;;;;;12.68;94.54;101581.94;10442488;28;20252;-84
2021/12/30 18:37:29;;;;;;;11.25;6.80;;;;;;;12.70;94.63;101588.00;10484089;28;20040;-83
2021/12/30 18:42:31;;;;;;;13.38;7.18;;;;;;;12.75;94.45;101589.84;10467281;28;20056;-84
2021/12/30 18:47:39;;;;;;;12.43;7.45;;;;;;;12.86;93.38;101588.41;10452984;28;20059;-84
2021/12/30 18:52:42;;;;;;;13.02;6.78;;;;;;;12.80;93.24;101604.66;10456904;28;20052;-84
2021/12/30 18:57:46;;;;;;;13.50;7.38;;;;;;;12.84;92.68;101590.09;10448104;28;20491;-85
2021/12/30 19:02:48;;;;;;;16.77;7.80;;;;;;;12.89;92.17;101596.28;10463907;28;20474;-82
2021/12/30 19:08:03;;;;;;;18.02;8.13;;;;;;;12.76;92.60;101607.97;10477464;28;20072;-84
2021/12/30 19:13:13;;;;;;;12.98;8.05;;;;;;;12.84;91.39;101610.78;10462617;28;20127;-83
2021/12/30 19:18:16;;;;;;;12.05;7.18;;;;;;;12.80;91.72;101615.00;10476208;28;20053;-83
2021/12/30 19:23:18;;;;;;;14.70;8.55;;;;;;;12.77;91.72;101619.22;10464122;28;20492;-84
2021/12/30 19:28:20;;;;;;;13.93;9.07;;;;;;;12.78;91.33;101627.00;10488152;28;20119;-85
2021/12/30 19:33:25;;;;;;;15.65;9.45;;;;;;;12.73;91.40;101626.00;10481103;28;20111;-84
2021/12/30 19:38:28;;;;;;;16.75;9.20;;;;;;;12.67;91.84;101629.28;10463412;28;20049;-84
2021/12/30 19:43:42;;;;;;;19.15;10.65;;;;;;;12.68;91.78;101630.16;10479611;28;20044;-84
2021/12/30 19:48:46;;;;;;;19.15;11.25;;;;;;;12.69;91.84;101627.63;10463960;28;20044;-83
2021/12/30 19:53:49;;;;;;;23.90;13.13;;;;;;;12.74;91.35;101632.91;10470617;28;20040;-85
2021/12/30 19:58:51;;;;;;;24.10;12.35;;;;;;;12.73;91.53;101627.69;10459583;28;20084;-85
2021/12/30 20:04:18;;;;;;;20.35;13.65;;;;;;;12.77;91.53;101635.59;10476330;28;20068;-84
2021/12/30 20:09:19;;;;;;;23.15;12.65;;;;;;;12.83;91.14;101640.06;10472737;28;20054;-84
2021/12/30 20:14:21;;;;;;;23.45;11.68;;;;;;;12.85;91.34;101648.72;10489039;28;20044;-83
2021/12/30 20:19:23;;;;;;;21.30;11.68;;;;;;;12.83;91.30;101655.59;10464585;28;20571;-85
2021/12/30 20:24:28;;;;;;;24.50;11.75;;;;;;;12.90;91.29;101654.94;10484245;28;20079;-86
2021/12/30 20:29:30;;;;;;;23.15;9.20;;;;;;;12.88;90.98;101656.59;10474055;28;20059;-84
2021/12/30 20:34:34;;;;;;;17.73;8.38;;;;;;;12.97;90.17;101659.44;10462380;28;20544;-84
2021/12/30 20:39:38;;;;;;;20.23;7.72;;;;;;;12.97;89.68;101661.13;10491089;28;20060;-85
2021/12/30 20:44:41;;;;;;;15.15;6.43;;;;;;;12.85;90.96;101659.97;10471790;28;20076;-85
2021/12/30 20:49:44;;;;;;;13.93;6.75;;;;;;;12.73;91.70;101669.06;10474745;28;20040;-85
2021/12/30 20:54:47;;;;;;;11.45;6.03;;;;;;;12.67;92.14;101675.81;10469500;28;20075;-84
2021/12/30 20:59:48;;;;;;;22.15;8.82;;;;;;;12.76;91.45;101680.38;10469017;28;20055;-81
2021/12/30 21:04:50;;;;;;;16.38;4.90;;;;;;;12.75;91.37;101670.88;10482446;28;20045;-84
2021/12/30 21:09:52;;;;;;;11.93;4.68;;;;;;;12.84;90.36;101683.22;10459920;28;20125;-84
2021/12/30 21:14:54;;;;;;;9.80;4.20;;;;;;;12.87;89.96;101687.59;10470602;28;20048;-83
2021/12/30 21:19:56;;;;;;;11.05;4.20;;;;;;;12.86;89.69;101702.22;10456309;28;20056;-86
2021/12/30 21:24:58;;;;;;;8.95;3.47;;;;;;;12.89;89.28;101702.31;10458767;28;20143;-85
2021/12/30 21:30:03;;;;;;;8.82;3.17;;;;;;;12.98;88.84;101699.09;10447660;28;20534;-87
2021/12/30 21:35:07;;;;;;;12.18;3.55;;;;;;;12.92;88.80;101699.78;10464831;28;20086;-86
2021/12/30 21:40:08;;;;;;;10.93;3.30;;;;;;;12.92;88.94;101697.22;10469927;28;20036;-86
2021/12/30 21:45:11;;;;;;;10.85;6.55;;;;;;;12.84;90.05;101703.88;10476806;28;20071;-85
2021/12/30 21:50:14;;;;;;;13.73;9.18;;;;;;;12.86;90.07;101699.63;10469543;28;20048;-87
2021/12/30 21:55:19;;;;;;;17.65;9.70;;;;;;;12.84;89.93;101698.72;10484421;28;20558;-84
2021/12/30 22:00:22;;;;;;;17.25;9.88;;;;;;;12.89;88.84;101694.56;10469829;28;20062;-85
2021/12/30 22:05:29;;;;;;;19.30;10.45;;;;;;;12.83;88.97;101694.38;10442408;28;20048;-86
2021/12/30 22:10:32;;;;;;;15.25;9.82;;;;;;;12.94;88.94;101677.44;10474929;28;20247;-87
2021/12/30 22:15:34;;;;;;;10.75;7.45;;;;;;;12.80;88.53;101671.91;10478452;28;20456;-85
2021/12/30 22:20:38;;;;;;;13.38;7.97;;;;;;;12.89;88.06;101666.09;10468539;28;20048;-85
2021/12/30 22:25:40;;;;;;;10.80;6.63;;;;;;;12.84;87.86;101659.94;10466107;28;20045;-86
2021/12/30 22:30:45;;;;;;;8.70;5.18;;;;;;;12.85;87.69;101661.66;10445736;28;20143;-85
2021/12/30 22:35:47;;;;;;;14.43;4.90;;;;;;;12.87;87.14;101652.25;10469260;28;20046;-86
2021/12/30 22:40:48;;;;;;;8.52;4.28;;;;;;;12.91;86.74;101654.09;10468341;28;20044;-85
2021/12/30 22:45:50;;;;;;;6.72;4.03;;;;;;;12.86;87.07;101650.47;10451649;28;20090;-87
2021/12/30 22:50:52;;;;;;;9.07;4.82;;;;;;;12.82;87.73;101648.66;10448897;28;20045;-85
2021/12/30 22:55:54;;;;;;;9.43;5.30;;;;;;;12.81;87.78;101647.75;10467428;28;20533;-85
2021/12/30 23:00:57;;;;;;;9.32;5.63;;;;;;;12.80;88.01;101650.31;10453265;28;20100;-85